Aviation Digital Data Service (ADDS)

Output produced by METARs form (1203 UTC 24 February 2018)
found at http://www.aviationweather.gov/adds/metars/
 
FKKD 241100Z VRB03KT 9999 SCT016 FEW020CB 33/23 Q1009 NOSIG
TAF FKKD 241100Z 2412/2518 VRB06KT 8000 SCT016 FEW020CB 
     TEMPO 2422/2506 TS BKN013 FEW016CB 
     PROB30 
     TEMPO 2500/2506 4000 TSRA
       
FKKR 241100Z 32008KT CAVOK 37/18 Q1008 NOSIG
TAF FKKR 240500Z 2406/2418 06004KT 8000 NSC
       
FKKN 241100Z 32006KT 8000 NSC 31/18 Q1016
FKYS 241100Z /////KT 6000 SCT016 29/21 Q1014 NOSIG
TAF FKYS 241100Z 2412/2512 VRB06KT 7000 BKN016 
     PROB40 
     TEMPO 2414/2421 TS BKN013 SCT020CB 
     BECMG 2420/2422 BKN006 
     TEMPO 2502/2506 2500 BR 
     BECMG 2507/2509 BKN016